KOCH/OCH METAR and TAF weather

Enter ICAO airport designator
Station Type Date Time Source
KOCH METAR 2019/12/06 23:56 UTC NOAA

KOCH 062356Z AUTO 34004KT 10SM BKN047 16/14 A3018 RMK AO2 SLP222 T01610144 10178 20161 51018


Station Type Date Time Source
KOCH Decoded METAR 2019/12/06 23:56 UTC NOAA

Nacogdoches, A L Mangham Jr. Regional Airport, TX, United States (KOCH) 31-35N 094-43W
Dec 06, 2019 - 06:56 PM EST / 2019.12.06 2356 UTC
Wind: from the NNW (340 degrees) at 5 MPH (4 KT):0
Visibility: 10 mile(s):0
Sky conditions: mostly cloudy
Temperature: 61.0 F (16.1 C)
Dew Point: 57.9 F (14.4 C)
Relative Humidity: 89%
Pressure (altimeter): 30.18 in. Hg (1022 hPa)
Pressure tendency: 0.05 inches (1.8 hPa) higher than three hours ago
ob: KOCH 062356Z AUTO 34004KT 10SM BKN047 16/14 A3018 RMK AO2 SLP222 T01610144 10178 20161 51018
cycle: 0

Station Type Date Time Source
KOCH TAF UTC NOAA

Error!

Example: see airport list